sensor_id;sensor_type;location;lat;lon;timestamp;P1;durP1;ratioP1;P2;durP2;ratioP2
261;SDS011;114;48.260;10.988;2022-10-12T00:01:54;34.73;;;24.13;;
261;SDS011;114;48.260;10.988;2022-10-12T00:04:24;38.03;;;25.47;;
261;SDS011;114;48.260;10.988;2022-10-12T00:06:51;38.17;;;24.37;;
261;SDS011;114;48.260;10.988;2022-10-12T00:09:20;39.10;;;27.00;;
261;SDS011;114;48.260;10.988;2022-10-12T00:11:45;35.00;;;26.10;;
261;SDS011;114;48.260;10.988;2022-10-12T00:14:12;40.83;;;26.10;;
261;SDS011;114;48.260;10.988;2022-10-12T00:16:39;36.77;;;24.60;;
261;SDS011;114;48.260;10.988;2022-10-12T00:19:06;37.10;;;23.87;;
261;SDS011;114;48.260;10.988;2022-10-12T00:21:33;34.43;;;24.00;;
261;SDS011;114;48.260;10.988;2022-10-12T00:24:00;36.60;;;24.70;;
261;SDS011;114;48.260;10.988;2022-10-12T00:26:27;35.00;;;24.97;;
261;SDS011;114;48.260;10.988;2022-10-12T00:29:00;36.10;;;24.90;;
261;SDS011;114;48.260;10.988;2022-10-12T00:31:28;43.53;;;26.07;;
261;SDS011;114;48.260;10.988;2022-10-12T00:33:55;36.70;;;25.60;;
261;SDS011;114;48.260;10.988;2022-10-12T00:36:24;40.90;;;26.47;;
261;SDS011;114;48.260;10.988;2022-10-12T00:38:52;36.30;;;25.10;;
261;SDS011;114;48.260;10.988;2022-10-12T00:41:21;32.83;;;25.20;;
261;SDS011;114;48.260;10.988;2022-10-12T00:43:49;34.77;;;25.60;;
261;SDS011;114;48.260;10.988;2022-10-12T00:49:22;37.37;;;24.37;;
261;SDS011;114;48.260;10.988;2022-10-12T00:52:02;36.30;;;24.30;;
261;SDS011;114;48.260;10.988;2022-10-12T00:54:33;31.50;;;23.80;;
261;SDS011;114;48.260;10.988;2022-10-12T00:57:03;33.20;;;24.27;;
261;SDS011;114;48.260;10.988;2022-10-12T00:59:31;33.53;;;23.40;;
261;SDS011;114;48.260;10.988;2022-10-12T01:02:02;40.23;;;23.30;;
261;SDS011;114;48.260;10.988;2022-10-12T01:04:29;32.30;;;22.83;;
261;SDS011;114;48.260;10.988;2022-10-12T01:06:56;33.97;;;25.17;;
261;SDS011;114;48.260;10.988;2022-10-12T01:09:23;41.70;;;26.47;;
261;SDS011;114;48.260;10.988;2022-10-12T01:11:49;31.70;;;22.50;;
261;SDS011;114;48.260;10.988;2022-10-12T01:14:16;38.70;;;23.90;;
261;SDS011;114;48.260;10.988;2022-10-12T01:16:46;32.27;;;25.23;;
261;SDS011;114;48.260;10.988;2022-10-12T01:22:01;32.27;;;24.77;;
261;SDS011;114;48.260;10.988;2022-10-12T01:27:23;30.37;;;22.87;;
261;SDS011;114;48.260;10.988;2022-10-12T01:32:37;34.63;;;24.30;;
261;SDS011;114;48.260;10.988;2022-10-12T01:35:29;35.73;;;25.93;;
261;SDS011;114;48.260;10.988;2022-10-12T01:43:31;41.20;;;26.37;;
261;SDS011;114;48.260;10.988;2022-10-12T01:46:33;39.00;;;24.93;;
261;SDS011;114;48.260;10.988;2022-10-12T01:48:55;48.93;;;25.27;;
261;SDS011;114;48.260;10.988;2022-10-12T01:51:28;46.20;;;24.63;;
261;SDS011;114;48.260;10.988;2022-10-12T01:59:18;38.17;;;24.93;;
261;SDS011;114;48.260;10.988;2022-10-12T02:05:04;37.43;;;24.87;;
261;SDS011;114;48.260;10.988;2022-10-12T02:07:41;45.27;;;27.47;;
261;SDS011;114;48.260;10.988;2022-10-12T02:10:43;35.23;;;26.73;;
261;SDS011;114;48.260;10.988;2022-10-12T02:13:14;42.60;;;28.03;;
261;SDS011;114;48.260;10.988;2022-10-12T02:18:14;39.63;;;26.73;;
261;SDS011;114;48.260;10.988;2022-10-12T02:20:43;37.20;;;26.37;;
261;SDS011;114;48.260;10.988;2022-10-12T02:23:14;37.07;;;26.63;;
261;SDS011;114;48.260;10.988;2022-10-12T02:25:50;51.20;;;27.03;;
261;SDS011;114;48.260;10.988;2022-10-12T02:28:17;45.47;;;28.47;;
261;SDS011;114;48.260;10.988;2022-10-12T02:30:58;44.57;;;28.00;;
261;SDS011;114;48.260;10.988;2022-10-12T02:36:56;42.03;;;28.53;;
261;SDS011;114;48.260;10.988;2022-10-12T02:39:42;47.57;;;26.87;;
261;SDS011;114;48.260;10.988;2022-10-12T02:42:18;43.73;;;28.83;;
261;SDS011;114;48.260;10.988;2022-10-12T02:44:52;35.63;;;27.97;;
261;SDS011;114;48.260;10.988;2022-10-12T02:47:21;33.37;;;25.07;;
261;SDS011;114;48.260;10.988;2022-10-12T02:49:52;38.70;;;26.37;;
261;SDS011;114;48.260;10.988;2022-10-12T02:52:20;40.30;;;25.60;;
261;SDS011;114;48.260;10.988;2022-10-12T02:54:49;38.97;;;25.47;;
261;SDS011;114;48.260;10.988;2022-10-12T02:57:15;39.93;;;25.50;;
261;SDS011;114;48.260;10.988;2022-10-12T02:59:42;45.13;;;27.80;;
261;SDS011;114;48.260;10.988;2022-10-12T03:02:09;55.20;;;27.60;;
261;SDS011;114;48.260;10.988;2022-10-12T03:04:35;33.47;;;25.30;;
261;SDS011;114;48.260;10.988;2022-10-12T03:07:02;34.57;;;25.93;;
261;SDS011;114;48.260;10.988;2022-10-12T03:09:28;36.53;;;26.87;;
261;SDS011;114;48.260;10.988;2022-10-12T03:11:55;33.33;;;25.90;;
261;SDS011;114;48.260;10.988;2022-10-12T03:14:21;36.80;;;26.10;;
261;SDS011;114;48.260;10.988;2022-10-12T03:16:47;32.93;;;25.87;;
261;SDS011;114;48.260;10.988;2022-10-12T03:19:13;38.90;;;27.73;;
261;SDS011;114;48.260;10.988;2022-10-12T03:21:39;43.50;;;27.23;;
261;SDS011;114;48.260;10.988;2022-10-12T03:24:05;36.67;;;27.53;;
261;SDS011;114;48.260;10.988;2022-10-12T03:26:32;39.97;;;30.37;;
261;SDS011;114;48.260;10.988;2022-10-12T03:29:00;42.97;;;29.27;;
261;SDS011;114;48.260;10.988;2022-10-12T03:31:26;52.90;;;30.70;;
261;SDS011;114;48.260;10.988;2022-10-12T03:33:52;41.73;;;29.13;;
261;SDS011;114;48.260;10.988;2022-10-12T03:36:18;57.33;;;32.60;;
261;SDS011;114;48.260;10.988;2022-10-12T03:38:45;64.13;;;31.40;;
261;SDS011;114;48.260;10.988;2022-10-12T03:41:11;53.17;;;33.90;;
261;SDS011;114;48.260;10.988;2022-10-12T03:43:37;47.63;;;32.53;;
261;SDS011;114;48.260;10.988;2022-10-12T03:46:04;65.13;;;32.70;;
261;SDS011;114;48.260;10.988;2022-10-12T03:48:30;64.90;;;36.83;;
261;SDS011;114;48.260;10.988;2022-10-12T03:50:56;101.53;;;35.27;;
261;SDS011;114;48.260;10.988;2022-10-12T03:53:23;69.93;;;34.50;;
261;SDS011;114;48.260;10.988;2022-10-12T03:55:49;54.60;;;35.77;;
261;SDS011;114;48.260;10.988;2022-10-12T03:58:14;58.67;;;36.20;;
261;SDS011;114;48.260;10.988;2022-10-12T04:00:40;52.83;;;35.53;;
261;SDS011;114;48.260;10.988;2022-10-12T04:03:06;58.27;;;36.33;;
261;SDS011;114;48.260;10.988;2022-10-12T04:05:31;57.00;;;35.80;;
261;SDS011;114;48.260;10.988;2022-10-12T04:07:57;54.53;;;35.23;;
261;SDS011;114;48.260;10.988;2022-10-12T04:10:23;49.57;;;33.50;;
261;SDS011;114;48.260;10.988;2022-10-12T04:12:50;45.60;;;33.50;;
261;SDS011;114;48.260;10.988;2022-10-12T04:15:22;48.93;;;32.07;;
261;SDS011;114;48.260;10.988;2022-10-12T04:17:49;49.03;;;32.40;;
261;SDS011;114;48.260;10.988;2022-10-12T04:20:14;43.90;;;31.30;;
261;SDS011;114;48.260;10.988;2022-10-12T04:22:41;46.57;;;33.03;;
261;SDS011;114;48.260;10.988;2022-10-12T04:25:08;50.13;;;33.57;;
261;SDS011;114;48.260;10.988;2022-10-12T04:27:37;52.43;;;33.40;;
261;SDS011;114;48.260;10.988;2022-10-12T04:30:05;50.07;;;34.67;;
261;SDS011;114;48.260;10.988;2022-10-12T04:32:32;47.73;;;32.50;;
261;SDS011;114;48.260;10.988;2022-10-12T04:34:58;48.70;;;33.07;;
261;SDS011;114;48.260;10.988;2022-10-12T04:37:25;45.43;;;33.70;;
261;SDS011;114;48.260;10.988;2022-10-12T04:39:54;46.60;;;32.30;;
261;SDS011;114;48.260;10.988;2022-10-12T04:42:21;49.80;;;34.43;;
261;SDS011;114;48.260;10.988;2022-10-12T04:44:52;46.63;;;33.67;;
261;SDS011;114;48.260;10.988;2022-10-12T04:47:18;56.03;;;33.67;;
261;SDS011;114;48.260;10.988;2022-10-12T04:49:44;46.27;;;31.80;;
261;SDS011;114;48.260;10.988;2022-10-12T04:52:10;47.80;;;33.10;;
261;SDS011;114;48.260;10.988;2022-10-12T04:54:36;51.17;;;33.50;;
261;SDS011;114;48.260;10.988;2022-10-12T04:57:02;50.80;;;33.47;;
261;SDS011;114;48.260;10.988;2022-10-12T04:59:28;52.67;;;34.90;;
261;SDS011;114;48.260;10.988;2022-10-12T05:01:53;70.63;;;33.90;;
261;SDS011;114;48.260;10.988;2022-10-12T05:04:19;63.57;;;32.90;;
261;SDS011;114;48.260;10.988;2022-10-12T05:06:45;42.90;;;31.90;;
261;SDS011;114;48.260;10.988;2022-10-12T05:09:12;44.83;;;32.60;;
261;SDS011;114;48.260;10.988;2022-10-12T05:11:37;41.57;;;31.80;;
261;SDS011;114;48.260;10.988;2022-10-12T05:14:03;52.13;;;32.80;;
261;SDS011;114;48.260;10.988;2022-10-12T05:16:29;46.33;;;32.03;;
261;SDS011;114;48.260;10.988;2022-10-12T05:18:55;46.90;;;32.57;;
261;SDS011;114;48.260;10.988;2022-10-12T05:21:21;49.13;;;31.00;;
261;SDS011;114;48.260;10.988;2022-10-12T05:23:50;42.57;;;31.60;;
261;SDS011;114;48.260;10.988;2022-10-12T05:26:16;45.47;;;30.80;;
261;SDS011;114;48.260;10.988;2022-10-12T05:28:42;72.53;;;34.50;;
261;SDS011;114;48.260;10.988;2022-10-12T05:31:08;62.93;;;33.20;;
261;SDS011;114;48.260;10.988;2022-10-12T05:33:34;65.03;;;33.50;;
261;SDS011;114;48.260;10.988;2022-10-12T05:36:00;68.10;;;33.07;;
261;SDS011;114;48.260;10.988;2022-10-12T05:38:25;75.90;;;35.00;;
261;SDS011;114;48.260;10.988;2022-10-12T05:40:51;82.83;;;36.53;;
261;SDS011;114;48.260;10.988;2022-10-12T05:43:17;77.13;;;35.40;;
261;SDS011;114;48.260;10.988;2022-10-12T05:45:43;83.87;;;37.87;;
261;SDS011;114;48.260;10.988;2022-10-12T05:48:08;109.77;;;40.93;;
261;SDS011;114;48.260;10.988;2022-10-12T05:50:34;90.53;;;41.20;;
261;SDS011;114;48.260;10.988;2022-10-12T05:53:00;121.60;;;41.57;;
261;SDS011;114;48.260;10.988;2022-10-12T05:55:25;108.40;;;41.30;;
261;SDS011;114;48.260;10.988;2022-10-12T05:57:51;131.63;;;41.27;;
261;SDS011;114;48.260;10.988;2022-10-12T06:00:17;101.30;;;42.57;;
261;SDS011;114;48.260;10.988;2022-10-12T06:02:43;93.93;;;38.30;;
261;SDS011;114;48.260;10.988;2022-10-12T06:05:08;101.00;;;41.97;;
261;SDS011;114;48.260;10.988;2022-10-12T06:07:34;101.97;;;42.10;;
261;SDS011;114;48.260;10.988;2022-10-12T06:10:00;111.53;;;44.37;;
261;SDS011;114;48.260;10.988;2022-10-12T06:12:26;139.53;;;44.90;;
261;SDS011;114;48.260;10.988;2022-10-12T06:14:53;147.70;;;45.13;;
261;SDS011;114;48.260;10.988;2022-10-12T06:17:21;97.33;;;42.77;;
261;SDS011;114;48.260;10.988;2022-10-12T06:19:47;111.90;;;43.00;;
261;SDS011;114;48.260;10.988;2022-10-12T06:22:14;112.50;;;42.43;;
261;SDS011;114;48.260;10.988;2022-10-12T06:24:40;141.70;;;46.20;;
261;SDS011;114;48.260;10.988;2022-10-12T06:27:05;123.93;;;44.80;;
261;SDS011;114;48.260;10.988;2022-10-12T06:29:32;163.17;;;43.97;;
261;SDS011;114;48.260;10.988;2022-10-12T06:32:00;104.97;;;42.10;;
261;SDS011;114;48.260;10.988;2022-10-12T06:34:26;91.23;;;40.57;;
261;SDS011;114;48.260;10.988;2022-10-12T06:36:53;89.73;;;40.87;;
261;SDS011;114;48.260;10.988;2022-10-12T06:39:18;84.17;;;41.30;;
261;SDS011;114;48.260;10.988;2022-10-12T06:41:45;94.90;;;43.20;;
261;SDS011;114;48.260;10.988;2022-10-12T06:44:11;100.97;;;43.73;;
261;SDS011;114;48.260;10.988;2022-10-12T06:46:37;85.03;;;42.03;;
261;SDS011;114;48.260;10.988;2022-10-12T06:49:02;89.03;;;42.63;;
261;SDS011;114;48.260;10.988;2022-10-12T06:51:30;92.03;;;43.93;;
261;SDS011;114;48.260;10.988;2022-10-12T06:53:55;82.50;;;42.33;;
261;SDS011;114;48.260;10.988;2022-10-12T06:56:21;80.83;;;43.23;;
261;SDS011;114;48.260;10.988;2022-10-12T06:58:47;69.03;;;37.37;;
261;SDS011;114;48.260;10.988;2022-10-12T07:01:18;70.33;;;36.67;;
261;SDS011;114;48.260;10.988;2022-10-12T07:03:44;70.60;;;37.87;;
261;SDS011;114;48.260;10.988;2022-10-12T07:06:10;72.43;;;38.20;;
261;SDS011;114;48.260;10.988;2022-10-12T07:08:37;74.47;;;38.20;;
261;SDS011;114;48.260;10.988;2022-10-12T07:11:05;57.70;;;35.90;;
261;SDS011;114;48.260;10.988;2022-10-12T07:13:33;69.57;;;39.50;;
261;SDS011;114;48.260;10.988;2022-10-12T07:15:59;58.60;;;35.10;;
261;SDS011;114;48.260;10.988;2022-10-12T07:18:25;50.90;;;33.60;;
261;SDS011;114;48.260;10.988;2022-10-12T07:20:51;58.27;;;34.40;;
261;SDS011;114;48.260;10.988;2022-10-12T07:23:20;60.07;;;35.30;;
261;SDS011;114;48.260;10.988;2022-10-12T07:25:49;71.37;;;37.13;;
261;SDS011;114;48.260;10.988;2022-10-12T07:28:17;62.60;;;33.70;;
261;SDS011;114;48.260;10.988;2022-10-12T07:30:44;59.90;;;35.93;;
261;SDS011;114;48.260;10.988;2022-10-12T07:33:10;64.10;;;35.20;;
261;SDS011;114;48.260;10.988;2022-10-12T07:35:36;56.63;;;35.13;;
261;SDS011;114;48.260;10.988;2022-10-12T07:38:02;50.43;;;32.83;;
261;SDS011;114;48.260;10.988;2022-10-12T07:40:28;53.00;;;33.07;;
261;SDS011;114;48.260;10.988;2022-10-12T07:42:54;51.40;;;32.90;;
261;SDS011;114;48.260;10.988;2022-10-12T07:45:20;59.97;;;35.90;;
261;SDS011;114;48.260;10.988;2022-10-12T07:47:47;50.70;;;33.30;;
261;SDS011;114;48.260;10.988;2022-10-12T07:50:13;53.83;;;32.77;;
261;SDS011;114;48.260;10.988;2022-10-12T07:52:40;49.20;;;34.10;;
261;SDS011;114;48.260;10.988;2022-10-12T07:55:06;52.27;;;31.70;;
261;SDS011;114;48.260;10.988;2022-10-12T07:57:32;51.17;;;33.77;;
261;SDS011;114;48.260;10.988;2022-10-12T07:59:59;45.43;;;32.30;;
261;SDS011;114;48.260;10.988;2022-10-12T08:02:26;45.93;;;31.40;;
261;SDS011;114;48.260;10.988;2022-10-12T08:04:52;44.70;;;30.50;;
261;SDS011;114;48.260;10.988;2022-10-12T08:07:18;47.13;;;32.50;;
261;SDS011;114;48.260;10.988;2022-10-12T08:09:46;46.70;;;31.60;;
261;SDS011;114;48.260;10.988;2022-10-12T08:12:13;45.67;;;31.53;;
261;SDS011;114;48.260;10.988;2022-10-12T08:14:39;57.70;;;31.93;;
261;SDS011;114;48.260;10.988;2022-10-12T08:17:05;48.37;;;32.40;;
261;SDS011;114;48.260;10.988;2022-10-12T08:19:34;55.20;;;33.27;;
261;SDS011;114;48.260;10.988;2022-10-12T08:22:00;48.87;;;31.70;;
261;SDS011;114;48.260;10.988;2022-10-12T08:24:26;48.30;;;33.63;;
261;SDS011;114;48.260;10.988;2022-10-12T08:26:52;50.03;;;32.07;;
261;SDS011;114;48.260;10.988;2022-10-12T08:29:18;58.73;;;32.80;;
261;SDS011;114;48.260;10.988;2022-10-12T08:31:44;50.83;;;31.33;;
261;SDS011;114;48.260;10.988;2022-10-12T08:34:13;53.47;;;33.20;;
261;SDS011;114;48.260;10.988;2022-10-12T08:36:39;51.30;;;32.63;;
261;SDS011;114;48.260;10.988;2022-10-12T08:39:04;49.23;;;31.90;;
261;SDS011;114;48.260;10.988;2022-10-12T08:47:19;47.43;;;30.13;;
261;SDS011;114;48.260;10.988;2022-10-12T08:49:56;45.20;;;31.03;;
261;SDS011;114;48.260;10.988;2022-10-12T08:52:48;42.50;;;32.03;;
261;SDS011;114;48.260;10.988;2022-10-12T08:55:42;41.10;;;29.10;;
261;SDS011;114;48.260;10.988;2022-10-12T08:58:16;45.70;;;32.60;;
261;SDS011;114;48.260;10.988;2022-10-12T09:01:11;47.03;;;31.10;;
261;SDS011;114;48.260;10.988;2022-10-12T09:03:52;49.23;;;31.80;;
261;SDS011;114;48.260;10.988;2022-10-12T09:15:14;40.53;;;29.07;;
261;SDS011;114;48.260;10.988;2022-10-12T09:17:48;46.50;;;29.13;;
261;SDS011;114;48.260;10.988;2022-10-12T09:20:22;40.80;;;27.27;;
261;SDS011;114;48.260;10.988;2022-10-12T09:22:52;45.60;;;25.50;;
261;SDS011;114;48.260;10.988;2022-10-12T09:25:24;40.70;;;28.47;;
261;SDS011;114;48.260;10.988;2022-10-12T09:27:52;38.03;;;25.40;;
261;SDS011;114;48.260;10.988;2022-10-12T09:30:22;37.23;;;27.00;;
261;SDS011;114;48.260;10.988;2022-10-12T09:35:39;36.50;;;26.43;;
261;SDS011;114;48.260;10.988;2022-10-12T09:38:08;42.30;;;27.80;;
261;SDS011;114;48.260;10.988;2022-10-12T09:40:36;39.23;;;27.70;;
261;SDS011;114;48.260;10.988;2022-10-12T09:43:02;36.93;;;27.53;;
261;SDS011;114;48.260;10.988;2022-10-12T09:45:30;38.73;;;26.90;;
261;SDS011;114;48.260;10.988;2022-10-12T09:50:44;38.70;;;24.83;;
261;SDS011;114;48.260;10.988;2022-10-12T09:55:59;39.63;;;25.13;;
261;SDS011;114;48.260;10.988;2022-10-12T09:58:31;41.80;;;27.50;;
261;SDS011;114;48.260;10.988;2022-10-12T10:01:18;38.37;;;26.27;;
261;SDS011;114;48.260;10.988;2022-10-12T10:03:49;45.00;;;25.40;;
261;SDS011;114;48.260;10.988;2022-10-12T10:06:36;41.90;;;27.20;;
261;SDS011;114;48.260;10.988;2022-10-12T10:09:04;37.03;;;24.93;;
261;SDS011;114;48.260;10.988;2022-10-12T10:11:30;42.87;;;26.63;;
261;SDS011;114;48.260;10.988;2022-10-12T10:13:57;37.30;;;24.03;;
261;SDS011;114;48.260;10.988;2022-10-12T10:16:25;39.83;;;27.33;;
261;SDS011;114;48.260;10.988;2022-10-12T10:18:54;43.40;;;24.43;;
261;SDS011;114;48.260;10.988;2022-10-12T10:21:35;34.37;;;24.30;;
261;SDS011;114;48.260;10.988;2022-10-12T10:24:04;44.20;;;23.90;;
261;SDS011;114;48.260;10.988;2022-10-12T10:32:12;35.07;;;22.93;;
261;SDS011;114;48.260;10.988;2022-10-12T10:34:59;45.33;;;22.90;;
261;SDS011;114;48.260;10.988;2022-10-12T10:37:48;33.30;;;19.90;;
261;SDS011;114;48.260;10.988;2022-10-12T10:42:49;36.40;;;22.17;;
261;SDS011;114;48.260;10.988;2022-10-12T10:45:24;33.70;;;21.20;;
261;SDS011;114;48.260;10.988;2022-10-12T10:47:58;32.47;;;19.83;;
261;SDS011;114;48.260;10.988;2022-10-12T10:50:39;33.00;;;21.60;;
261;SDS011;114;48.260;10.988;2022-10-12T10:53:13;28.80;;;19.83;;
261;SDS011;114;48.260;10.988;2022-10-12T11:01:04;33.60;;;18.10;;
261;SDS011;114;48.260;10.988;2022-10-12T11:03:45;35.80;;;17.67;;
261;SDS011;114;48.260;10.988;2022-10-12T11:09:01;25.33;;;16.23;;
261;SDS011;114;48.260;10.988;2022-10-12T11:11:40;24.00;;;15.57;;
261;SDS011;114;48.260;10.988;2022-10-12T11:14:15;34.60;;;21.50;;
261;SDS011;114;48.260;10.988;2022-10-12T11:16:49;26.87;;;17.00;;
261;SDS011;114;48.260;10.988;2022-10-12T11:22:03;22.17;;;15.40;;
261;SDS011;114;48.260;10.988;2022-10-12T11:24:40;28.27;;;17.27;;
261;SDS011;114;48.260;10.988;2022-10-12T11:27:13;26.67;;;16.73;;
261;SDS011;114;48.260;10.988;2022-10-12T11:29:55;40.77;;;16.47;;
261;SDS011;114;48.260;10.988;2022-10-12T11:32:31;24.73;;;15.77;;
261;SDS011;114;48.260;10.988;2022-10-12T11:35:13;24.10;;;15.13;;
261;SDS011;114;48.260;10.988;2022-10-12T11:38:03;25.57;;;14.27;;
261;SDS011;114;48.260;10.988;2022-10-12T11:40:41;22.07;;;13.47;;
261;SDS011;114;48.260;10.988;2022-10-12T11:43:24;30.37;;;15.37;;
261;SDS011;114;48.260;10.988;2022-10-12T11:45:55;22.80;;;16.17;;
261;SDS011;114;48.260;10.988;2022-10-12T11:51:07;24.17;;;14.83;;
261;SDS011;114;48.260;10.988;2022-10-12T11:54:35;23.27;;;14.50;;
261;SDS011;114;48.260;10.988;2022-10-12T11:56:40;24.53;;;15.93;;
261;SDS011;114;48.260;10.988;2022-10-12T11:59:20;20.17;;;14.83;;
261;SDS011;114;48.260;10.988;2022-10-12T12:02:07;21.17;;;14.27;;
261;SDS011;114;48.260;10.988;2022-10-12T12:04:45;26.03;;;13.43;;
261;SDS011;114;48.260;10.988;2022-10-12T12:09:47;23.90;;;15.47;;
261;SDS011;114;48.260;10.988;2022-10-12T12:12:14;35.00;;;15.50;;
261;SDS011;114;48.260;10.988;2022-10-12T12:14:49;23.60;;;15.40;;
261;SDS011;114;48.260;10.988;2022-10-12T12:17:26;25.20;;;15.07;;
261;SDS011;114;48.260;10.988;2022-10-12T12:19:55;17.40;;;14.30;;
261;SDS011;114;48.260;10.988;2022-10-12T12:27:34;25.47;;;14.50;;
261;SDS011;114;48.260;10.988;2022-10-12T12:30:01;20.10;;;14.40;;
261;SDS011;114;48.260;10.988;2022-10-12T12:35:23;25.27;;;13.73;;
261;SDS011;114;48.260;10.988;2022-10-12T12:37:59;27.03;;;13.93;;
261;SDS011;114;48.260;10.988;2022-10-12T12:40:28;24.00;;;14.47;;
261;SDS011;114;48.260;10.988;2022-10-12T12:51:11;21.20;;;13.40;;
261;SDS011;114;48.260;10.988;2022-10-12T12:53:50;17.53;;;13.40;;
261;SDS011;114;48.260;10.988;2022-10-12T13:21:28;24.70;;;14.10;;
261;SDS011;114;48.260;10.988;2022-10-12T13:26:43;23.47;;;13.27;;
261;SDS011;114;48.260;10.988;2022-10-12T13:32:03;20.23;;;14.00;;
261;SDS011;114;48.260;10.988;2022-10-12T13:34:46;33.07;;;14.23;;
261;SDS011;114;48.260;10.988;2022-10-12T13:37:17;20.37;;;13.80;;
261;SDS011;114;48.260;10.988;2022-10-12T13:39:43;15.27;;;12.57;;
261;SDS011;114;48.260;10.988;2022-10-12T13:42:23;27.53;;;15.50;;
261;SDS011;114;48.260;10.988;2022-10-12T13:44:52;26.10;;;16.10;;
261;SDS011;114;48.260;10.988;2022-10-12T13:49:57;21.03;;;13.73;;
261;SDS011;114;48.260;10.988;2022-10-12T13:52:24;23.47;;;16.90;;
261;SDS011;114;48.260;10.988;2022-10-12T13:54:53;38.80;;;16.33;;
261;SDS011;114;48.260;10.988;2022-10-12T14:00:06;25.23;;;16.43;;
261;SDS011;114;48.260;10.988;2022-10-12T14:02:34;31.70;;;16.00;;
261;SDS011;114;48.260;10.988;2022-10-12T14:05:01;23.07;;;15.93;;
261;SDS011;114;48.260;10.988;2022-10-12T14:07:39;18.47;;;13.97;;
261;SDS011;114;48.260;10.988;2022-10-12T14:12:44;29.37;;;15.50;;
261;SDS011;114;48.260;10.988;2022-10-12T14:15:13;23.93;;;14.43;;
261;SDS011;114;48.260;10.988;2022-10-12T14:17:42;28.60;;;16.67;;
261;SDS011;114;48.260;10.988;2022-10-12T14:20:15;22.90;;;13.07;;
261;SDS011;114;48.260;10.988;2022-10-12T14:22:45;24.17;;;13.50;;
261;SDS011;114;48.260;10.988;2022-10-12T14:25:16;28.77;;;14.73;;
261;SDS011;114;48.260;10.988;2022-10-12T14:27:44;24.60;;;13.57;;
261;SDS011;114;48.260;10.988;2022-10-12T14:30:17;20.40;;;13.83;;
261;SDS011;114;48.260;10.988;2022-10-12T14:32:48;27.73;;;13.63;;
261;SDS011;114;48.260;10.988;2022-10-12T14:37:47;31.23;;;14.37;;
261;SDS011;114;48.260;10.988;2022-10-12T14:45:27;18.50;;;12.10;;
261;SDS011;114;48.260;10.988;2022-10-12T14:47:53;25.80;;;14.70;;
261;SDS011;114;48.260;10.988;2022-10-12T14:50:20;21.90;;;14.07;;
261;SDS011;114;48.260;10.988;2022-10-12T14:52:51;22.77;;;14.70;;
261;SDS011;114;48.260;10.988;2022-10-12T14:55:22;21.40;;;13.37;;
261;SDS011;114;48.260;10.988;2022-10-12T14:57:51;29.27;;;13.83;;
261;SDS011;114;48.260;10.988;2022-10-12T15:00:27;19.30;;;13.00;;
261;SDS011;114;48.260;10.988;2022-10-12T15:02:55;21.13;;;13.30;;
261;SDS011;114;48.260;10.988;2022-10-12T15:05:21;17.17;;;12.97;;
261;SDS011;114;48.260;10.988;2022-10-12T15:07:50;18.80;;;12.10;;
261;SDS011;114;48.260;10.988;2022-10-12T15:10:17;22.73;;;14.20;;
261;SDS011;114;48.260;10.988;2022-10-12T15:12:50;23.20;;;12.23;;
261;SDS011;114;48.260;10.988;2022-10-12T15:17:55;19.23;;;12.90;;
261;SDS011;114;48.260;10.988;2022-10-12T15:20:22;19.53;;;11.60;;
261;SDS011;114;48.260;10.988;2022-10-12T15:22:48;19.07;;;12.90;;
261;SDS011;114;48.260;10.988;2022-10-12T15:25:24;18.47;;;11.53;;
261;SDS011;114;48.260;10.988;2022-10-12T15:27:53;19.63;;;12.47;;
261;SDS011;114;48.260;10.988;2022-10-12T15:30:21;18.63;;;12.57;;
261;SDS011;114;48.260;10.988;2022-10-12T15:32:46;31.47;;;12.67;;
261;SDS011;114;48.260;10.988;2022-10-12T15:37:48;16.83;;;12.03;;
261;SDS011;114;48.260;10.988;2022-10-12T15:40:16;19.63;;;13.93;;
261;SDS011;114;48.260;10.988;2022-10-12T15:42:44;20.63;;;13.07;;
261;SDS011;114;48.260;10.988;2022-10-12T15:45:15;26.53;;;14.17;;
261;SDS011;114;48.260;10.988;2022-10-12T15:47:44;19.20;;;14.00;;
261;SDS011;114;48.260;10.988;2022-10-12T15:50:11;25.10;;;15.50;;
261;SDS011;114;48.260;10.988;2022-10-12T15:52:38;22.17;;;14.43;;
261;SDS011;114;48.260;10.988;2022-10-12T15:55:08;22.43;;;14.47;;
261;SDS011;114;48.260;10.988;2022-10-12T15:57:44;22.23;;;14.17;;
261;SDS011;114;48.260;10.988;2022-10-12T16:00:10;24.20;;;13.63;;
261;SDS011;114;48.260;10.988;2022-10-12T16:02:38;22.70;;;14.17;;
261;SDS011;114;48.260;10.988;2022-10-12T16:05:10;17.70;;;15.00;;
261;SDS011;114;48.260;10.988;2022-10-12T16:07:50;20.87;;;14.43;;
261;SDS011;114;48.260;10.988;2022-10-12T16:10:17;31.57;;;15.60;;
261;SDS011;114;48.260;10.988;2022-10-12T16:12:47;20.33;;;16.07;;
261;SDS011;114;48.260;10.988;2022-10-12T16:15:17;28.20;;;15.23;;
261;SDS011;114;48.260;10.988;2022-10-12T16:17:45;17.57;;;14.40;;
261;SDS011;114;48.260;10.988;2022-10-12T16:20:13;22.37;;;15.20;;
261;SDS011;114;48.260;10.988;2022-10-12T16:22:40;37.27;;;18.10;;
261;SDS011;114;48.260;10.988;2022-10-12T16:25:06;25.93;;;16.83;;
261;SDS011;114;48.260;10.988;2022-10-12T16:27:37;23.67;;;17.33;;
261;SDS011;114;48.260;10.988;2022-10-12T16:30:04;22.73;;;16.87;;
261;SDS011;114;48.260;10.988;2022-10-12T16:32:32;22.37;;;16.60;;
261;SDS011;114;48.260;10.988;2022-10-12T16:34:58;33.87;;;16.20;;
261;SDS011;114;48.260;10.988;2022-10-12T16:37:23;26.77;;;16.90;;
261;SDS011;114;48.260;10.988;2022-10-12T16:39:53;21.63;;;17.83;;
261;SDS011;114;48.260;10.988;2022-10-12T16:42:21;25.57;;;16.63;;
261;SDS011;114;48.260;10.988;2022-10-12T16:44:47;30.03;;;17.77;;
261;SDS011;114;48.260;10.988;2022-10-12T16:47:13;24.83;;;16.60;;
261;SDS011;114;48.260;10.988;2022-10-12T16:49:46;21.87;;;17.10;;
261;SDS011;114;48.260;10.988;2022-10-12T16:52:12;29.23;;;19.17;;
261;SDS011;114;48.260;10.988;2022-10-12T16:54:39;38.57;;;19.97;;
261;SDS011;114;48.260;10.988;2022-10-12T16:57:07;28.03;;;19.00;;
261;SDS011;114;48.260;10.988;2022-10-12T16:59:33;28.93;;;20.47;;
261;SDS011;114;48.260;10.988;2022-10-12T17:01:59;23.23;;;18.63;;
261;SDS011;114;48.260;10.988;2022-10-12T17:04:25;37.40;;;21.97;;
261;SDS011;114;48.260;10.988;2022-10-12T17:06:52;29.87;;;21.20;;
261;SDS011;114;48.260;10.988;2022-10-12T17:09:18;28.60;;;19.90;;
261;SDS011;114;48.260;10.988;2022-10-12T17:11:44;33.13;;;21.00;;
261;SDS011;114;48.260;10.988;2022-10-12T17:14:11;31.73;;;20.77;;
261;SDS011;114;48.260;10.988;2022-10-12T17:16:39;28.33;;;19.10;;
261;SDS011;114;48.260;10.988;2022-10-12T17:19:16;36.63;;;19.43;;
261;SDS011;114;48.260;10.988;2022-10-12T17:21:49;30.47;;;21.80;;
261;SDS011;114;48.260;10.988;2022-10-12T17:24:17;34.93;;;22.30;;
261;SDS011;114;48.260;10.988;2022-10-12T17:26:44;31.00;;;20.63;;
261;SDS011;114;48.260;10.988;2022-10-12T17:29:12;32.80;;;23.57;;
261;SDS011;114;48.260;10.988;2022-10-12T17:31:39;30.20;;;21.47;;
261;SDS011;114;48.260;10.988;2022-10-12T17:34:04;29.37;;;20.33;;
261;SDS011;114;48.260;10.988;2022-10-12T17:36:33;26.53;;;20.10;;
261;SDS011;114;48.260;10.988;2022-10-12T17:38:59;34.97;;;22.53;;
261;SDS011;114;48.260;10.988;2022-10-12T17:41:26;31.70;;;22.23;;